Airfield :
LOGIN :

Register | Disclaimer

   EN    FR    IT 

 










Legend :    VFR   Marginal VFR   IFR   Intensive IFR   Very Intensive IFR
Visi :
Ceiling :
>= 8 km
>= 3000ft
5 to 8 km
1000 to 3000 ft
1500m to 5 km
500 to 1000 ft
800 to 1500m
200 to 500 ft
< 800m
< 200 ft
Symbols :   Thunderstorms  Fog  Heavy snow  Heavy precipitations  Wind > 20 kt
SIGMETs :     Misc.  Thunderstorms  Icing  Turbulence  Mountain Waves  Volcanic Ashes







- Airport Elevation : 70 ft
- IATA code : LEI


LEAM - Almeria

CURRENT METAR :
  • 212200Z AUTO 21005KT 180V250 9999 NCD 24/19 Q1013

EXPIRED METARs :
  • 212130Z AUTO 22006KT 190V260 9999 NCD 24/19 Q1012
  • 212100Z AUTO 19007KT 9999 NCD 24/19 Q1012
  • 212030Z 13005KT 090V170 CAVOK 24/21 Q1011
  • 212000Z 11005KT CAVOK 24/20 Q1010
  • 211930Z VRB02KT CAVOK 25/20 Q1009

TAF TAF LEAM
Valid from the 21 at 21:00 until the 22 at 21:00 UTC


212000Z 2121/2221 VRB02KT CAVOK TX29/2215Z TN20/2205Z
BECMG 2208/2210 20010KT
BECMG 2218/2220 VRB02KT
No reported NOTAMs for that airfield.
1 SIGMET reported for the Madrid FIR (LECM) :
 
Embedded thunderstorms
LECM SIGMET 8 VALID 212026/212300 LEVA
LECM MADRID FIR/UIR EMBD TS OBS AT 2021Z WI N4240 W002 - N4140 W002 - N4120 W00050 - N4250 W00030 TOP FL400 MOV ENE 10KT NC=



MET'MAP, your aeronautical weather chart ! - Copyright ORBIFLY December 2007 - Disclaimer

ORBIFLY MET'MAP TEAM :

Programming & Development : Alexandra Zaïnal
Concept & Development : Baudouin d'Aumeries
Co-Development & Prog : Marc-Olivier Méhu
Technical & hardware support : Manuel Goepfert

Contact : metmap@orbifly.com




SOURCES & CREDITS :

   NOAA